createdAt,value
2023-04-02T00:01:23.689Z,96751.66
2023-04-02T00:04:04.483Z,96755.34
2023-04-02T00:06:33.418Z,96748.25
2023-04-02T00:09:01.641Z,96751.56
2023-04-02T00:11:30.329Z,96756.13
2023-04-02T00:14:00.373Z,96758.53
2023-04-02T00:16:27.570Z,96762.84
2023-04-02T00:18:56.029Z,96760.94
2023-04-02T00:21:25.838Z,96765.91
2023-04-02T00:23:53.921Z,96762.41
2023-04-02T00:26:21.808Z,96771.50
2023-04-02T00:28:48.932Z,96773.41
2023-04-02T00:31:17.162Z,96776.88
2023-04-02T00:33:44.062Z,96773.19
2023-04-02T00:36:10.989Z,96785.09
2023-04-02T00:38:39.198Z,96780.00
2023-04-02T00:41:07.378Z,96784.25
2023-04-02T00:43:36.523Z,96784.88
2023-04-02T00:46:04.748Z,96785.75
2023-04-02T00:48:37.765Z,96786.38
2023-04-02T00:51:10.531Z,96783.19
2023-04-02T00:53:39.127Z,96778.19
2023-04-02T00:56:12.631Z,96783.69
2023-04-02T00:58:39.837Z,96794.75
2023-04-02T01:01:15.743Z,96796.84
2023-04-02T01:03:42.733Z,96791.75
2023-04-02T01:06:11.232Z,96798.16
2023-04-02T01:08:44.437Z,96793.75
2023-04-02T01:11:20.199Z,96794.88
2023-04-02T01:13:52.134Z,96798.84
2023-04-02T01:16:22.809Z,96792.66
2023-04-02T01:18:52.985Z,96787.56
2023-04-02T01:21:37.815Z,96799.72
2023-04-02T01:24:07.224Z,96795.44
2023-04-02T01:26:39.673Z,96795.94
2023-04-02T01:29:10.418Z,96801.94
2023-04-02T01:31:38.269Z,96771.00
2023-04-02T01:34:06.637Z,96801.13
2023-04-02T01:36:37.497Z,96803.94
2023-04-02T01:39:09.741Z,96808.63
2023-04-02T01:41:39.123Z,96809.41
2023-04-02T01:44:07.623Z,96812.09
2023-04-02T01:46:39.879Z,96817.50
2023-04-02T01:49:11.550Z,96819.91
2023-04-02T01:51:40.010Z,96816.09
2023-04-02T01:54:07.588Z,96824.09
2023-04-02T01:56:35.122Z,96817.28
2023-04-02T01:59:02.618Z,96820.00
2023-04-02T02:01:33.410Z,96820.78
2023-04-02T02:04:01.967Z,96820.78
2023-04-02T02:06:29.028Z,96814.31
2023-04-02T02:08:57.757Z,96818.41
2023-04-02T02:11:26.910Z,96816.78
2023-04-02T02:13:55.483Z,96819.50
2023-04-02T02:16:23.076Z,96820.59
2023-04-02T02:18:51.616Z,96822.47
2023-04-02T02:21:24.150Z,96824.16
2023-04-02T02:23:51.268Z,96826.97
2023-04-02T02:26:18.262Z,96838.03
2023-04-02T02:28:46.698Z,96826.75
2023-04-02T02:31:16.262Z,96837.22
2023-04-02T02:33:45.786Z,96837.75
2023-04-02T02:36:16.375Z,96843.41
2023-04-02T02:38:54.687Z,96847.13
2023-04-02T02:41:25.950Z,96842.44
2023-04-02T02:43:57.214Z,96842.16
2023-04-02T02:46:25.515Z,96840.53
2023-04-02T02:48:53.821Z,96848.91
2023-04-02T02:51:24.952Z,96849.19
2023-04-02T02:53:55.167Z,96858.69
2023-04-02T02:56:23.277Z,96857.00
2023-04-02T02:58:51.759Z,96853.28
2023-04-02T03:01:19.207Z,96856.00
2023-04-02T03:03:46.736Z,96857.09
2023-04-02T03:06:15.202Z,96866.25
2023-04-02T03:08:44.753Z,96863.06
2023-04-02T03:11:16.599Z,96869.63
2023-04-02T03:13:45.972Z,96862.97
2023-04-02T03:16:16.507Z,96876.41
2023-04-02T03:18:46.390Z,96880.41
2023-04-02T03:21:25.351Z,96876.09
2023-04-02T03:23:54.682Z,96888.91
2023-04-02T03:26:25.354Z,96891.28
2023-04-02T03:28:55.888Z,96886.72
2023-04-02T03:31:25.671Z,96883.41
2023-04-02T03:33:55.407Z,96896.09
2023-04-02T03:36:25.395Z,96890.22
2023-04-02T03:38:54.538Z,96891.00
2023-04-02T03:41:26.273Z,96899.97
2023-04-02T03:43:56.074Z,96895.88
2023-04-02T03:46:26.811Z,96894.88
2023-04-02T03:48:55.826Z,96897.06
2023-04-02T03:51:26.478Z,96896.56
2023-04-02T03:53:53.631Z,96897.97
2023-04-02T03:56:26.475Z,96906.34
2023-04-02T03:58:55.285Z,96901.53
2023-04-02T04:01:25.918Z,96904.72
2023-04-02T04:03:54.001Z,96909.31
2023-04-02T04:06:23.896Z,96910.91
2023-04-02T04:08:53.121Z,96914.13
2023-04-02T04:11:24.547Z,96925.47
2023-04-02T04:13:56.058Z,96926.44
2023-04-02T04:16:26.331Z,96934.81
2023-04-02T04:18:54.265Z,96931.69
2023-04-02T04:21:22.823Z,96930.38
2023-04-02T04:23:50.554Z,96940.47
2023-04-02T04:26:20.047Z,96932.19
2023-04-02T04:28:52.915Z,96939.63
2023-04-02T04:31:24.598Z,96938.28
2023-04-02T04:33:55.422Z,96944.19
2023-04-02T04:36:24.140Z,96949.47
2023-04-02T04:38:51.464Z,96955.16
2023-04-02T04:41:23.406Z,96967.53
2023-04-02T04:43:53.294Z,96970.66
2023-04-02T04:46:23.404Z,96968.06
2023-04-02T04:48:53.417Z,96973.47
2023-04-02T04:51:22.374Z,96987.84
2023-04-02T04:53:50.434Z,96988.66
2023-04-02T04:56:19.759Z,96989.16
2023-04-02T04:58:49.579Z,96984.81
2023-04-02T05:01:20.120Z,96989.25
2023-04-02T05:03:51.415Z,96987.66
2023-04-02T05:06:21.922Z,96991.91
2023-04-02T05:08:51.423Z,97001.72
2023-04-02T05:11:23.681Z,96998.19
2023-04-02T05:13:53.433Z,97003.25
2023-04-02T05:16:24.481Z,97004.25
2023-04-02T05:18:53.808Z,96997.25
2023-04-02T05:21:23.487Z,97003.34
2023-04-02T05:23:52.740Z,97000.97
2023-04-02T05:26:21.852Z,97004.16
2023-04-02T05:28:52.378Z,97016.34
2023-04-02T05:31:22.566Z,97013.94
2023-04-02T05:33:50.829Z,97018.53
2023-04-02T05:36:21.450Z,97020.72
2023-04-02T05:38:49.185Z,97020.44
2023-04-02T05:41:21.872Z,97029.41
2023-04-02T05:43:49.659Z,97031.03
2023-04-02T05:46:17.377Z,97030.69
2023-04-02T05:48:48.846Z,97031.41
2023-04-02T05:51:18.692Z,97035.69
2023-04-02T05:53:48.715Z,97030.00
2023-04-02T05:56:18.426Z,97036.78
2023-04-02T05:58:47.920Z,97047.06
2023-04-02T06:01:32.562Z,97046.06
2023-04-02T06:04:03.564Z,97049.13
2023-04-02T06:06:42.568Z,97044.81
2023-04-02T06:09:11.472Z,97047.28
2023-04-02T06:11:40.169Z,97056.69
2023-04-02T06:14:08.300Z,97054.97
2023-04-02T06:16:35.217Z,97060.38
2023-04-02T06:19:02.705Z,97070.09
2023-04-02T06:21:29.514Z,97059.03
2023-04-02T06:24:00.225Z,97060.66
2023-04-02T06:26:29.499Z,97064.31
2023-04-02T06:29:00.932Z,97068.22
2023-04-02T06:31:29.395Z,97071.94
2023-04-02T06:33:56.432Z,97071.53
2023-04-02T06:36:24.057Z,97077.63
2023-04-02T06:38:52.003Z,97084.09
2023-04-02T06:41:21.632Z,97089.19
2023-04-02T06:43:51.359Z,97080.59
2023-04-02T06:46:21.750Z,97090.94
2023-04-02T06:48:50.417Z,97103.56
2023-04-02T06:51:19.019Z,97096.53
2023-04-02T06:53:47.546Z,97101.94
2023-04-02T06:56:20.821Z,97109.78
2023-04-02T06:58:49.128Z,97107.94
2023-04-02T07:01:17.854Z,97113.09
2023-04-02T07:03:45.000Z,97122.13
2023-04-02T07:06:14.049Z,97127.28
2023-04-02T07:08:40.854Z,97134.88
2023-04-02T07:11:07.721Z,97125.63
2023-04-02T07:13:36.385Z,97134.38
2023-04-02T07:16:05.064Z,97125.66
2023-04-02T07:18:33.230Z,97130.63
2023-04-02T07:21:00.215Z,97131.13
2023-04-02T07:23:27.072Z,97137.31
2023-04-02T07:25:54.376Z,97136.13
2023-04-02T07:28:22.886Z,97135.75
2023-04-02T07:30:50.909Z,97148.50
2023-04-02T07:33:20.525Z,97143.75
2023-04-02T07:35:48.126Z,97146.66
2023-04-02T07:38:15.047Z,97154.47
2023-04-02T07:40:41.943Z,97168.78
2023-04-02T07:43:08.940Z,97134.63
2023-04-02T07:45:35.979Z,97168.59
2023-04-02T07:48:04.819Z,97174.53
2023-04-02T07:50:33.026Z,97173.97
2023-04-02T07:53:00.306Z,97177.69
2023-04-02T07:55:27.200Z,97175.00
2023-04-02T07:57:55.010Z,97177.91
2023-04-02T08:00:22.614Z,97177.22
2023-04-02T08:02:49.549Z,97182.03
2023-04-02T08:05:16.892Z,97187.44
2023-04-02T08:07:51.896Z,97193.72
2023-04-02T08:10:18.844Z,97197.34
2023-04-02T08:12:45.725Z,97188.34
2023-04-02T08:15:14.365Z,97199.22
2023-04-02T08:17:41.427Z,97200.31
2023-04-02T08:20:13.841Z,97198.53
2023-04-02T08:22:40.673Z,97209.59
2023-04-02T08:25:09.542Z,97206.63
2023-04-02T08:27:36.379Z,97209.81
2023-04-02T08:30:03.519Z,97205.50
2023-04-02T08:32:30.339Z,97217.63
2023-04-02T08:34:57.177Z,97220.13
2023-04-02T08:37:23.985Z,97218.13
2023-04-02T08:39:50.792Z,97218.22
2023-04-02T08:42:22.933Z,97225.50
2023-04-02T08:44:54.816Z,97232.19
2023-04-02T08:47:22.598Z,97232.00
2023-04-02T08:49:50.872Z,97247.59
2023-04-02T08:52:21.163Z,97234.69
2023-04-02T08:54:48.159Z,97240.31
2023-04-02T08:57:19.461Z,97246.50
2023-04-02T08:59:49.477Z,97246.59
2023-04-02T09:02:25.932Z,97257.41
2023-04-02T09:04:53.218Z,97254.53
2023-04-02T09:07:20.058Z,97259.50
2023-04-02T09:09:48.242Z,97254.25
2023-04-02T09:12:17.707Z,97265.56
2023-04-02T09:14:45.537Z,97270.59
2023-04-02T09:17:17.634Z,97268.69
2023-04-02T09:19:49.285Z,97269.13
2023-04-02T09:22:19.981Z,97270.28
2023-04-02T09:24:51.287Z,97252.44
2023-04-02T09:27:18.900Z,97273.13
2023-04-02T09:29:46.923Z,97283.56
2023-04-02T09:32:40.183Z,97287.16
2023-04-02T09:35:18.404Z,97281.41
2023-04-02T09:38:10.920Z,97295.69
2023-04-02T09:40:42.904Z,97287.50
2023-04-02T09:43:11.595Z,97289.19
2023-04-02T09:45:38.778Z,97281.03
2023-04-02T09:48:17.683Z,97298.03
2023-04-02T09:50:44.614Z,97303.13
2023-04-02T09:53:25.845Z,97305.81
2023-04-02T09:56:06.875Z,97309.84
2023-04-02T09:58:33.832Z,97315.59
2023-04-02T10:01:00.907Z,97312.88
2023-04-02T10:03:30.160Z,97318.50
2023-04-02T10:06:07.778Z,97323.84
2023-04-02T10:08:34.764Z,97321.78
2023-04-02T10:11:03.326Z,97324.19
2023-04-02T10:13:31.288Z,97325.16
2023-04-02T10:16:00.738Z,97326.97
2023-04-02T10:18:36.901Z,97332.38
2023-04-02T10:21:04.703Z,97334.41
2023-04-02T10:23:32.171Z,97336.56
2023-04-02T10:26:05.345Z,97340.31
2023-04-02T10:28:40.204Z,97341.19
2023-04-02T10:31:10.143Z,97346.38
2023-04-02T10:33:39.771Z,97352.69
2023-04-02T10:36:09.170Z,97353.63
2023-04-02T10:38:41.695Z,97356.94
2023-04-02T10:41:13.763Z,97362.81
2023-04-02T10:43:46.778Z,97363.53
2023-04-02T10:46:19.183Z,97373.63
2023-04-02T10:48:52.706Z,97374.63
2023-04-02T10:51:28.177Z,97387.97
2023-04-02T10:53:58.395Z,97384.00
2023-04-02T10:56:26.728Z,97395.94
2023-04-02T10:58:57.347Z,97393.25
2023-04-02T11:01:25.692Z,97403.69
2023-04-02T11:03:58.143Z,97407.03
2023-04-02T11:06:27.649Z,97412.53
2023-04-02T11:08:58.312Z,97416.56
2023-04-02T11:11:26.889Z,97413.97
2023-04-02T11:13:55.849Z,97427.16
2023-04-02T11:16:22.937Z,97416.38
2023-04-02T11:19:10.191Z,97423.44
2023-04-02T11:21:51.445Z,97427.84
2023-04-02T11:24:35.555Z,97441.34
2023-04-02T11:27:07.027Z,97437.41
2023-04-02T11:29:36.211Z,97444.81
2023-04-02T11:32:14.003Z,97450.94
2023-04-02T11:35:05.950Z,97446.59
2023-04-02T11:37:36.516Z,97455.00
2023-04-02T11:40:07.269Z,97456.84
2023-04-02T11:42:34.831Z,97459.03
2023-04-02T11:45:22.225Z,97464.16
2023-04-02T11:48:03.964Z,97475.06
2023-04-02T11:50:32.037Z,97472.56
2023-04-02T11:53:01.957Z,97481.19
2023-04-02T11:55:29.935Z,97486.81
2023-04-02T11:58:29.920Z,97485.69
2023-04-02T12:01:17.458Z,97475.16
2023-04-02T12:04:01.300Z,97484.34
2023-04-02T12:06:31.087Z,97490.50
2023-04-02T12:09:03.515Z,97492.22
2023-04-02T12:11:31.406Z,97491.66
2023-04-02T12:13:58.571Z,97490.50
2023-04-02T12:16:25.660Z,97494.19
2023-04-02T12:18:53.054Z,97500.16
2023-04-02T12:21:21.371Z,97509.19
2023-04-02T12:23:48.840Z,97513.22
2023-04-02T12:26:28.079Z,97515.19
2023-04-02T12:28:55.049Z,97520.69
2023-04-02T12:31:24.169Z,97525.28
2023-04-02T12:33:51.814Z,97528.81
2023-04-02T12:36:19.815Z,97531.50
2023-04-02T12:38:47.926Z,97533.09
2023-04-02T12:41:22.789Z,97543.28
2023-04-02T12:43:58.335Z,97554.31
2023-04-02T12:46:25.323Z,97553.84
2023-04-02T12:48:52.848Z,97552.47
2023-04-02T12:51:19.791Z,97555.97
2023-04-02T12:53:50.298Z,97556.75
2023-04-02T12:56:18.957Z,97558.94
2023-04-02T12:58:53.211Z,97565.75
2023-04-02T13:01:22.097Z,97563.28
2023-04-02T13:04:07.804Z,97566.53
2023-04-02T13:06:35.497Z,97561.63
2023-04-02T13:09:03.644Z,97566.16
2023-04-02T13:11:34.291Z,97567.94
2023-04-02T13:14:02.326Z,97568.72
2023-04-02T13:16:34.145Z,97577.13
2023-04-02T13:19:25.076Z,97574.19
2023-04-02T13:21:52.030Z,97574.19
2023-04-02T13:24:19.581Z,97580.84
2023-04-02T13:26:46.634Z,97581.56
2023-04-02T13:29:18.687Z,97592.78
2023-04-02T13:31:47.296Z,97583.50
2023-04-02T13:34:14.193Z,97590.88
2023-04-02T13:36:41.017Z,97594.25
2023-04-02T13:39:08.029Z,97595.16
2023-04-02T13:41:37.706Z,97592.28
2023-04-02T13:44:04.756Z,97594.47
2023-04-02T13:46:33.598Z,97593.63
2023-04-02T13:49:01.757Z,97596.97
2023-04-02T13:51:33.871Z,97606.31
2023-04-02T13:54:00.687Z,97612.22
2023-04-02T13:56:27.515Z,97621.44
2023-04-02T13:58:54.353Z,97623.91
2023-04-02T14:01:22.773Z,97627.81
2023-04-02T14:03:49.917Z,97633.50
2023-04-02T14:06:21.243Z,97634.34
2023-04-02T14:08:53.106Z,97636.84
2023-04-02T14:11:27.902Z,97643.84
2023-04-02T14:14:01.819Z,97650.38
2023-04-02T14:16:38.511Z,97656.13
2023-04-02T14:19:14.103Z,97656.13
2023-04-02T14:21:48.615Z,97652.41
2023-04-02T14:24:17.746Z,97660.59
2023-04-02T14:26:52.037Z,97660.13
2023-04-02T14:29:23.796Z,97661.75
2023-04-02T14:31:54.884Z,97662.28
2023-04-02T14:34:24.225Z,97665.63
2023-04-02T14:36:56.349Z,97663.13
2023-04-02T14:39:28.053Z,97672.28
2023-04-02T14:41:58.086Z,97674.47
2023-04-02T14:44:27.764Z,97670.72
2023-04-02T14:46:59.617Z,97680.25
2023-04-02T14:49:28.851Z,97687.53
2023-04-02T14:52:02.649Z,97688.13
2023-04-02T14:54:33.152Z,97689.22
2023-04-02T14:57:04.126Z,97691.34
2023-04-02T14:59:34.011Z,97694.53
2023-04-02T15:02:03.403Z,97704.25
2023-04-02T15:04:33.396Z,97705.66
2023-04-02T15:07:05.381Z,97710.53
2023-04-02T15:09:35.028Z,97709.97
2023-04-02T15:12:06.338Z,97713.53
2023-04-02T15:14:36.190Z,97715.56
2023-04-02T15:17:02.988Z,97719.63
2023-04-02T15:19:29.794Z,97722.66
2023-04-02T15:22:08.718Z,97724.25
2023-04-02T15:24:41.963Z,97723.38
2023-04-02T15:27:24.398Z,97728.28
2023-04-02T15:29:55.963Z,97728.56
2023-04-02T15:32:28.741Z,97739.38
2023-04-02T15:34:59.362Z,97738.63
2023-04-02T15:37:31.370Z,97750.03
2023-04-02T15:40:07.585Z,97745.50
2023-04-02T15:42:37.829Z,97743.09
2023-04-02T15:45:23.194Z,97745.56
2023-04-02T15:47:58.288Z,97755.63
2023-04-02T15:50:36.333Z,97759.50
2023-04-02T15:53:09.526Z,97752.53
2023-04-02T15:55:41.359Z,97762.81
2023-04-02T15:58:20.532Z,97772.84
2023-04-02T16:00:51.476Z,97775.28
2023-04-02T16:03:32.503Z,97770.41
2023-04-02T16:06:10.940Z,97784.69
2023-04-02T16:08:45.350Z,97783.63
2023-04-02T16:11:14.594Z,97791.13
2023-04-02T16:13:42.295Z,97793.78
2023-04-02T16:16:11.910Z,97800.63
2023-04-02T16:18:43.246Z,97808.13
2023-04-02T16:21:13.644Z,97797.06
2023-04-02T16:23:41.237Z,97809.75
2023-04-02T16:26:17.447Z,97816.53
2023-04-02T16:28:51.111Z,97816.53
2023-04-02T16:31:23.202Z,97821.41
2023-04-02T16:33:56.682Z,97830.69
2023-04-02T16:36:29.527Z,97836.13
2023-04-02T16:38:58.935Z,97848.28
2023-04-02T16:41:33.957Z,97848.28
2023-04-02T16:44:07.533Z,97855.84
2023-04-02T16:46:40.376Z,97856.66
2023-04-02T16:49:17.212Z,97864.47
2023-04-02T16:51:48.027Z,97862.31
2023-04-02T16:54:18.869Z,97872.59
2023-04-02T16:56:54.561Z,97870.94
2023-04-02T16:59:27.130Z,97882.59
2023-04-02T17:01:58.104Z,97880.97
2023-04-02T17:04:42.625Z,97876.34
2023-04-02T17:07:15.182Z,97886.59
2023-04-02T17:09:48.560Z,97893.91
2023-04-02T17:12:16.983Z,97901.19
2023-04-02T17:14:50.127Z,97905.25
2023-04-02T17:17:17.257Z,97907.41
2023-04-02T17:19:44.576Z,97915.56
2023-04-02T17:22:14.552Z,97923.69
2023-04-02T17:24:44.304Z,97930.47
2023-04-02T17:27:16.282Z,97933.69
2023-04-02T17:29:44.605Z,97944.47
2023-04-02T17:32:17.350Z,97953.94
2023-04-02T17:34:44.155Z,97947.75
2023-04-02T17:37:18.967Z,97961.47
2023-04-02T17:39:49.329Z,97960.13
2023-04-02T17:42:20.731Z,97968.50
2023-04-02T17:44:53.653Z,97965.25
2023-04-02T17:47:23.034Z,97974.16
2023-04-02T17:49:56.418Z,97978.47
2023-04-02T17:52:24.682Z,97973.34
2023-04-02T17:54:57.210Z,97982.25
2023-04-02T17:57:32.295Z,97998.72
2023-04-02T18:00:03.384Z,98000.63
2023-04-02T18:02:39.103Z,98010.06
2023-04-02T18:05:10.414Z,98013.88
2023-04-02T18:07:41.672Z,98014.94
2023-04-02T18:10:13.425Z,98026.03
2023-04-02T18:12:50.522Z,98025.75
2023-04-02T18:15:34.805Z,98033.31
2023-04-02T18:18:06.173Z,98035.47
2023-04-02T18:20:36.925Z,98036.53
2023-04-02T18:23:08.319Z,98040.31
2023-04-02T18:25:45.923Z,98057.03
2023-04-02T18:28:21.767Z,98066.75
2023-04-02T18:30:54.287Z,98060.81
2023-04-02T18:33:32.602Z,98072.97
2023-04-02T18:36:02.060Z,98073.50
2023-04-02T18:38:31.542Z,98075.13
2023-04-02T18:41:10.412Z,98079.16
2023-04-02T18:43:42.484Z,98077.56
2023-04-02T18:46:14.521Z,98081.06
2023-04-02T18:48:47.754Z,98090.78
2023-04-02T18:51:17.218Z,98085.13
2023-04-02T18:53:44.185Z,98101.59
2023-04-02T18:56:13.768Z,98097.53
2023-04-02T18:58:42.186Z,98104.56
2023-04-02T19:01:11.393Z,98109.16
2023-04-02T19:03:41.337Z,98116.94
2023-04-02T19:06:12.483Z,98113.19
2023-04-02T19:08:41.600Z,98119.63
2023-04-02T19:11:11.144Z,98127.72
2023-04-02T19:13:38.008Z,98126.66
2023-04-02T19:16:21.971Z,98129.91
2023-04-02T19:18:54.305Z,98136.09
2023-04-02T19:21:25.149Z,98140.41
2023-04-02T19:24:00.334Z,98144.75
2023-04-02T19:26:30.266Z,98150.66
2023-04-02T19:29:04.223Z,98150.66
2023-04-02T19:31:35.600Z,98155.53
2023-04-02T19:34:08.071Z,98153.09
2023-04-02T19:36:41.933Z,98155.25
2023-04-02T19:39:21.386Z,98159.81
2023-04-02T19:41:52.060Z,98159.25
2023-04-02T19:44:18.937Z,98161.94
2023-04-02T19:46:45.892Z,98164.41
2023-04-02T19:49:14.395Z,98159.53
2023-04-02T19:51:42.571Z,98167.91
2023-04-02T19:54:09.637Z,98167.34
2023-04-02T19:56:36.454Z,98172.78
2023-04-02T19:59:17.258Z,98174.94
2023-04-02T20:01:45.517Z,98174.41
2023-04-02T20:04:12.677Z,98177.63
2023-04-02T20:06:39.520Z,98189.47
2023-04-02T20:09:07.707Z,98183.28
2023-04-02T20:11:35.076Z,98192.19
2023-04-02T20:14:02.275Z,98188.38
2023-04-02T20:16:29.118Z,98198.63
2023-04-02T20:18:56.626Z,98194.84
2023-04-02T20:21:23.473Z,98201.56
2023-04-02T20:23:52.699Z,98192.94
2023-04-02T20:26:20.940Z,98208.84
2023-04-02T20:28:47.789Z,98209.94
2023-04-02T20:31:15.452Z,98208.03
2023-04-02T20:33:42.969Z,98215.84
2023-04-02T20:36:11.048Z,98218.81
2023-04-02T20:38:37.916Z,98220.69
2023-04-02T20:41:05.585Z,98227.47
2023-04-02T20:43:34.180Z,98227.16
2023-04-02T20:46:01.987Z,98237.69
2023-04-02T20:48:29.210Z,98239.59
2023-04-02T20:50:56.365Z,98249.56
2023-04-02T20:53:23.196Z,98255.75
2023-04-02T20:55:49.982Z,98263.31
2023-04-02T20:58:17.887Z,98265.19
2023-04-02T21:00:46.090Z,98274.34
2023-04-02T21:03:12.898Z,98267.31
2023-04-02T21:05:42.475Z,98268.69
2023-04-02T21:08:09.340Z,98262.22
2023-04-02T21:10:36.345Z,98269.47
2023-04-02T21:13:03.287Z,98270.53
2023-04-02T21:15:30.113Z,98264.06
2023-04-02T21:17:58.362Z,98273.47
2023-04-02T21:20:25.194Z,98285.59
2023-04-02T21:22:52.029Z,98275.38
2023-04-02T21:25:18.907Z,98280.56
2023-04-02T21:27:45.779Z,98277.34
2023-04-02T21:30:12.807Z,98277.91
2023-04-02T21:32:39.679Z,98276.25
2023-04-02T21:35:08.494Z,98276.53
2023-04-02T21:37:35.359Z,98280.03
2023-04-02T21:40:02.167Z,98277.91
2023-04-02T21:42:28.973Z,98273.81
2023-04-02T21:44:55.827Z,98273.81
2023-04-02T21:47:22.698Z,98272.75
2023-04-02T21:49:49.523Z,98271.69
2023-04-02T21:52:17.863Z,98279.47
2023-04-02T21:54:44.657Z,98279.47
2023-04-02T21:57:11.630Z,98273.03
2023-04-02T21:59:38.463Z,98287.28
2023-04-02T22:02:05.262Z,98290.50
2023-04-02T22:04:32.152Z,98287.28
2023-04-02T22:06:59.074Z,98285.94
2023-04-02T22:09:27.361Z,98288.09
2023-04-02T22:11:55.031Z,98288.88
2023-04-02T22:14:21.961Z,98273.50
2023-04-02T22:16:48.853Z,98291.34
2023-04-02T22:19:16.347Z,98296.19
2023-04-02T22:21:43.618Z,98295.41
2023-04-02T22:24:12.271Z,98294.06
2023-04-02T22:26:40.621Z,98299.44
2023-04-02T22:29:07.852Z,98296.78
2023-04-02T22:31:35.069Z,98304.28
2023-04-02T22:34:03.552Z,98305.91
2023-04-02T22:36:30.839Z,98300.50
2023-04-02T22:38:58.061Z,98303.72
2023-04-02T22:41:25.719Z,98309.09
2023-04-02T22:43:55.054Z,98311.81
2023-04-02T22:46:22.117Z,98306.13
2023-04-02T22:48:49.151Z,98303.69
2023-04-02T22:51:18.332Z,98305.03
2023-04-02T22:53:45.177Z,98305.28
2023-04-02T22:56:12.968Z,98308.81
2023-04-02T22:58:40.129Z,98298.59
2023-04-02T23:01:09.562Z,98297.50
2023-04-02T23:03:36.413Z,98298.84
2023-04-02T23:06:04.722Z,98299.38
2023-04-02T23:08:31.554Z,98308.03
2023-04-02T23:11:01.910Z,98305.06
2023-04-02T23:13:28.980Z,98310.72
2023-04-02T23:15:55.934Z,98310.72
2023-04-02T23:18:24.255Z,98312.59
2023-04-02T23:20:51.181Z,98311.50
2023-04-02T23:23:17.984Z,98314.75
2023-04-02T23:25:44.783Z,98321.22
2023-04-02T23:28:12.306Z,98312.56
2023-04-02T23:30:40.484Z,98321.75
2023-04-02T23:33:07.379Z,98312.56
2023-04-02T23:35:35.659Z,98308.25
2023-04-02T23:38:02.489Z,98309.84
2023-04-02T23:40:29.287Z,98304.47
2023-04-02T23:42:56.109Z,98307.16
2023-04-02T23:45:23.017Z,98305.03
2023-04-02T23:47:49.845Z,98308.25
2023-04-02T23:50:16.791Z,98303.66
2023-04-02T23:52:44.962Z,98303.94
2023-04-02T23:55:11.798Z,98302.06
2023-04-02T23:57:38.628Z,98305.56
